Time;durP1;ratioP1;P1;durP2;ratioP2;P2;SDS_P1;SDS_P2;PMS_P1;PMS_P2;Temp;Humidity;BMP_temperature;BMP_pressure;BME280_temperature;BME280_humidity;BME280_pressure;Samples;Min_cycle;Max_cycle;Signal;HPM_P1;HPM_P2
2022/12/21 00:00:30;;;;;;;70.57;39.22;;;11.60;96.80;;;;;;5037897;28;20028;-74
2022/12/21 00:02:56;;;;;;;64.50;37.97;;;11.60;96.80;;;;;;5046999;28;20079;-74
2022/12/21 00:05:22;;;;;;;76.03;39.08;;;11.60;96.90;;;;;;5046431;28;20029;-74
2022/12/21 00:07:47;;;;;;;74.03;41.13;;;11.60;96.90;;;;;;5038695;28;20029;-73
2022/12/21 00:10:13;;;;;;;76.25;40.20;;;11.60;96.90;;;;;;5045771;28;20437;-74
2022/12/21 00:12:38;;;;;;;69.50;38.17;;;11.60;96.80;;;;;;5041210;28;20082;-74
2022/12/21 00:15:05;;;;;;;73.97;40.47;;;11.50;96.80;;;;;;5037069;28;20088;-74
2022/12/21 00:17:30;;;;;;;71.72;39.47;;;11.60;96.70;;;;;;5037706;28;20025;-73
2022/12/21 00:19:56;;;;;;;68.38;39.03;;;11.60;96.70;;;;;;5046780;28;20025;-74
2022/12/21 00:22:21;;;;;;;78.55;39.53;;;11.60;96.60;;;;;;5048948;28;20064;-74
2022/12/21 00:24:48;;;;;;;78.65;41.22;;;11.60;96.50;;;;;;5042757;28;20030;-74
2022/12/21 00:27:13;;;;;;;75.80;41.75;;;11.60;96.50;;;;;;5043817;28;20033;-75
2022/12/21 00:29:39;;;;;;;83.03;43.50;;;11.60;96.50;;;;;;5035367;28;20064;-75
2022/12/21 00:32:05;;;;;;;74.35;38.70;;;11.60;96.50;;;;;;5048093;28;20108;-75
2022/12/21 00:34:30;;;;;;;81.18;42.10;;;11.60;96.40;;;;;;5047290;28;20025;-75
2022/12/21 00:36:57;;;;;;;77.90;39.83;;;11.60;96.40;;;;;;5043299;28;20086;-74
2022/12/21 00:39:22;;;;;;;71.18;36.70;;;11.60;96.40;;;;;;5028843;28;20491;-75
2022/12/21 00:41:48;;;;;;;67.85;36.97;;;11.50;96.40;;;;;;5046821;28;20052;-74
2022/12/21 00:44:14;;;;;;;79.25;38.72;;;11.50;96.50;;;;;;5048812;28;20116;-75
2022/12/21 00:46:40;;;;;;;76.03;39.45;;;11.50;96.40;;;;;;5041124;28;20385;-74
2022/12/21 00:49:06;;;;;;;70.00;38.63;;;11.50;96.40;;;;;;5045547;28;20808;-74
2022/12/21 00:51:34;;;;;;;81.28;41.10;;;11.50;96.40;;;;;;5031071;28;20018;-75
2022/12/21 00:54:00;;;;;;;79.32;39.60;;;11.50;96.30;;;;;;5041167;28;20075;-73
2022/12/21 00:56:27;;;;;;;70.20;37.28;;;11.50;96.60;;;;;;5038611;28;20033;-73
2022/12/21 00:58:53;;;;;;;74.60;38.28;;;11.50;96.30;;;;;;5041111;28;20039;-73
2022/12/21 01:01:20;;;;;;;74.10;38.15;;;11.50;96.30;;;;;;5040408;28;20021;-73
2022/12/21 01:03:46;;;;;;;71.88;40.30;;;11.50;96.30;;;;;;5037755;28;20018;-74
2022/12/21 01:06:17;;;;;;;74.65;40.55;;;11.50;96.30;;;;;;5025232;28;20078;-73
2022/12/21 01:08:43;;;;;;;76.40;39.72;;;11.40;96.30;;;;;;5044451;28;20028;-75
2022/12/21 01:11:11;;;;;;;72.60;39.42;;;11.40;96.30;;;;;;5044511;28;20403;-75
2022/12/21 01:13:37;;;;;;;73.93;38.95;;;11.40;96.30;;;;;;5049315;28;20495;-74
2022/12/21 01:16:05;;;;;;;79.63;41.40;;;11.40;96.30;;;;;;5028086;28;20049;-74
2022/12/21 01:18:31;;;;;;;78.28;42.33;;;11.40;96.30;;;;;;5046242;28;20764;-74
2022/12/21 01:20:57;;;;;;;77.32;38.13;;;11.40;96.20;;;;;;5046703;28;20044;-74
2022/12/21 01:23:24;;;;;;;91.47;45.53;;;11.40;96.20;;;;;;5046370;28;20025;-74
2022/12/21 01:25:50;;;;;;;98.78;48.05;;;11.40;96.20;;;;;;5046966;28;20022;-75
2022/12/21 01:28:17;;;;;;;89.53;43.08;;;11.40;96.30;;;;;;5038733;28;20017;-75
2022/12/21 01:30:43;;;;;;;101.00;46.90;;;11.30;96.30;;;;;;5028134;28;20035;-74
2022/12/21 01:33:13;;;;;;;118.40;50.25;;;11.30;96.30;;;;;;5037358;28;20090;-74
2022/12/21 01:35:40;;;;;;;91.05;43.92;;;11.40;96.30;;;;;;5030402;28;20043;-73
2022/12/21 01:38:06;;;;;;;106.05;49.40;;;11.40;96.20;;;;;;5040128;28;20037;-74
2022/12/21 01:40:32;;;;;;;100.95;48.97;;;11.30;96.20;;;;;;5044661;28;20097;-74
2022/12/21 01:42:58;;;;;;;106.32;48.92;;;11.30;96.30;;;;;;5043360;28;20017;-74
2022/12/21 01:45:31;;;;;;;98.93;47.63;;;11.30;96.40;;;;;;5046427;28;20029;-75
2022/12/21 01:48:00;;;;;;;106.25;50.53;;;11.20;96.50;;;;;;5044848;28;20033;-76
2022/12/21 01:50:37;;;;;;;108.53;49.38;;;11.20;96.50;;;;;;5035574;28;20061;-74
2022/12/21 01:53:13;;;;;;;107.82;49.88;;;11.20;96.50;;;;;;5039110;28;20057;-74
2022/12/21 01:55:40;;;;;;;107.43;51.95;;;11.20;96.60;;;;;;5037622;28;20120;-74
2022/12/21 01:58:07;;;;;;;118.78;50.00;;;11.10;96.70;;;;;;5043368;28;20048;-74
2022/12/21 02:00:33;;;;;;;99.95;47.35;;;11.10;96.70;;;;;;5048019;28;20539;-74
2022/12/21 02:03:03;;;;;;;118.68;51.05;;;11.10;96.70;;;;;;5044923;28;20116;-73
2022/12/21 02:05:58;;;;;;;91.55;45.58;;;11.10;96.80;;;;;;5036870;28;20076;-74
2022/12/21 02:08:24;;;;;;;124.30;51.33;;;11.10;96.80;;;;;;5029959;28;20021;-75
2022/12/21 02:10:51;;;;;;;101.13;46.75;;;11.10;96.80;;;;;;5038762;28;20040;-73
2022/12/21 02:13:17;;;;;;;166.80;47.85;;;11.10;96.90;;;;;;5045033;28;20075;-75
2022/12/21 02:15:59;;;;;;;107.57;47.95;;;11.00;96.90;;;;;;5033219;28;20045;-75
2022/12/21 02:18:37;;;;;;;89.43;43.65;;;11.00;97.00;;;;;;5037050;28;20446;-75
2022/12/21 02:21:21;;;;;;;213.82;54.60;;;11.00;97.30;;;;;;5038637;28;20106;-74
2022/12/21 02:24:06;;;;;;;99.00;44.60;;;11.10;97.00;;;;;;5042694;28;20032;-74
2022/12/21 02:27:30;;;;;;;113.35;42.72;;;11.10;97.00;;;;;;5019472;28;20499;-74
2022/12/21 02:30:11;;;;;;;96.82;46.33;;;11.10;97.00;;;;;;4969337;28;20046;-74
2022/12/21 02:33:08;;;;;;;136.95;43.83;;;11.10;96.90;;;;;;4968743;28;20114;-74
2022/12/21 02:36:02;;;;;;;89.45;41.22;;;11.10;97.00;;;;;;5033949;28;20048;-74
2022/12/21 02:38:55;;;;;;;95.50;43.83;;;11.10;97.00;;;;;;5046908;28;20025;-74
2022/12/21 02:41:33;;;;;;;93.93;43.65;;;11.00;97.00;;;;;;5042417;28;20029;-74
2022/12/21 02:44:15;;;;;;;100.25;42.33;;;11.00;96.90;;;;;;5046590;28;20024;-73
2022/12/21 02:46:49;;;;;;;78.07;39.17;;;11.10;97.00;;;;;;5049060;28;20025;-74
2022/12/21 02:49:36;;;;;;;93.38;41.47;;;11.00;97.00;;;;;;5047914;28;20029;-74
2022/12/21 02:52:19;;;;;;;106.75;41.22;;;11.00;97.00;;;;;;5038804;28;20026;-73
2022/12/21 02:54:45;;;;;;;88.53;41.13;;;11.00;97.00;;;;;;5043957;28;20025;-73
2022/12/21 02:57:11;;;;;;;103.93;44.08;;;11.00;97.00;;;;;;5045918;28;20078;-75
2022/12/21 02:59:46;;;;;;;117.32;44.38;;;11.00;97.00;;;;;;5046818;28;20521;-74
2022/12/21 03:02:37;;;;;;;141.52;44.83;;;11.00;97.00;;;;;;5043293;28;20075;-74
2022/12/21 03:05:35;;;;;;;142.35;41.17;;;10.90;97.00;;;;;;5041234;28;20085;-74
2022/12/21 03:08:20;;;;;;;87.40;41.90;;;10.90;97.00;;;;;;5033170;28;20383;-74
2022/12/21 03:11:06;;;;;;;105.88;44.70;;;10.90;96.90;;;;;;5036757;28;20480;-73
2022/12/21 03:14:05;;;;;;;183.52;47.08;;;10.90;96.90;;;;;;5038409;28;20511;-73
2022/12/21 03:16:34;;;;;;;106.57;46.43;;;10.90;96.90;;;;;;5032611;28;20053;-74
2022/12/21 03:19:04;;;;;;;170.77;48.78;;;10.90;96.90;;;;;;5050677;28;20817;-72
2022/12/21 03:21:33;;;;;;;88.32;40.13;;;10.90;96.90;;;;;;5038459;28;20020;-74
2022/12/21 03:24:31;;;;;;;109.70;43.40;;;11.00;96.80;;;;;;5039295;28;20543;-74
2022/12/21 03:27:01;;;;;;;220.75;48.90;;;10.90;96.80;;;;;;5034858;28;20045;-73
2022/12/21 03:29:34;;;;;;;86.82;41.90;;;10.90;96.70;;;;;;5046937;28;20481;-73
2022/12/21 03:32:06;;;;;;;90.55;41.50;;;10.90;96.80;;;;;;5027189;28;20387;-75
2022/12/21 03:34:42;;;;;;;121.30;49.58;;;10.90;96.80;;;;;;5036247;28;20029;-74
2022/12/21 03:37:15;;;;;;;162.02;54.88;;;10.90;97.00;;;;;;5036653;28;20064;-74
2022/12/21 03:39:47;;;;;;;98.40;43.58;;;11.00;96.70;;;;;;5003950;28;20010;-75
2022/12/21 03:42:21;;;;;;;99.07;42.20;;;11.10;96.70;;;;;;5044229;28;20040;-74
2022/12/21 03:44:57;;;;;;;127.88;51.50;;;11.00;96.60;;;;;;5040072;28;20052;-74
2022/12/21 03:47:30;;;;;;;191.23;43.95;;;11.00;96.60;;;;;;5047278;28;20487;-74
2022/12/21 03:50:03;;;;;;;110.78;43.60;;;11.00;96.60;;;;;;5050181;28;20056;-74
2022/12/21 03:52:34;;;;;;;88.50;41.38;;;11.00;96.90;;;;;;5039971;28;20071;-73
2022/12/21 03:55:13;;;;;;;103.35;45.58;;;11.00;96.60;;;;;;5049523;28;20028;-74
2022/12/21 03:57:40;;;;;;;100.25;44.72;;;11.00;96.60;;;;;;5044572;28;20041;-74
2022/12/21 04:00:08;;;;;;;143.82;45.85;;;11.00;96.50;;;;;;5044717;28;20052;-73
2022/12/21 04:02:44;;;;;;;121.78;44.38;;;11.10;96.60;;;;;;5015985;28;20591;-73
2022/12/21 04:05:26;;;;;;;97.05;44.13;;;11.00;96.50;;;;;;5049356;28;20052;-74
2022/12/21 04:07:53;;;;;;;122.25;48.92;;;11.00;96.50;;;;;;5043881;28;20021;-74
2022/12/21 04:10:21;;;;;;;95.47;44.50;;;11.00;96.50;;;;;;5031786;28;20036;-74
2022/12/21 04:12:47;;;;;;;94.00;41.67;;;11.00;96.60;;;;;;5039431;28;20476;-74
2022/12/21 04:15:15;;;;;;;438.08;50.47;;;11.00;96.60;;;;;;5040344;28;20107;-74
2022/12/21 04:17:42;;;;;;;114.60;40.53;;;11.00;96.70;;;;;;5035150;28;20453;-74
2022/12/21 04:20:11;;;;;;;114.28;39.78;;;11.00;96.70;;;;;;5046375;28;20103;-74
2022/12/21 04:28:25;;;;;;;136.38;46.22;;;11.00;96.70;;;;;;5045123;28;20082;-74
2022/12/21 04:30:50;;;;;;;;;;;11.00;96.60;;;;;;5046434;28;20032;-74
2022/12/21 04:33:20;;;;;;;92.80;41.58;;;11.00;96.70;;;;;;5038363;28;19905;-74
2022/12/21 04:38:34;;;;;;;92.63;43.40;;;10.90;96.80;;;;;;5038154;28;20537;-72
2022/12/21 04:41:00;;;;;;;112.05;44.83;;;10.90;96.80;;;;;;5019973;28;20028;-73
2022/12/21 04:43:26;;;;;;;111.13;43.80;;;10.90;96.90;;;;;;5041892;28;20562;-73
2022/12/21 04:46:06;;;;;;;130.93;50.38;;;10.90;96.90;;;;;;5038393;28;20025;-75
2022/12/21 04:48:32;;;;;;;95.45;43.97;;;10.90;96.90;;;;;;5040322;28;20592;-73
2022/12/21 04:51:10;;;;;;;85.93;42.22;;;10.90;96.90;;;;;;5021618;28;20080;-74
2022/12/21 04:53:36;;;;;;;115.30;47.75;;;10.90;96.90;;;;;;5019180;28;20060;-75
2022/12/21 04:56:02;;;;;;;90.07;41.95;;;10.90;96.80;;;;;;5039252;28;20048;-74
2022/12/21 04:58:28;;;;;;;104.10;44.17;;;10.90;96.70;;;;;;5043435;28;20036;-74
2022/12/21 05:00:53;;;;;;;63.92;33.47;;;10.90;96.80;;;;;;5039253;28;20025;-75
2022/12/21 05:03:20;;;;;;;91.70;42.22;;;10.90;96.80;;;;;;5046888;28;20384;-74
2022/12/21 05:05:46;;;;;;;109.45;41.58;;;10.90;96.80;;;;;;5030683;28;20113;-75
2022/12/21 05:08:15;;;;;;;106.00;47.78;;;10.80;96.80;;;;;;5044562;28;20052;-74
2022/12/21 05:10:41;;;;;;;75.43;38.53;;;10.80;96.90;;;;;;5047896;28;20384;-74
2022/12/21 05:13:07;;;;;;;95.68;44.22;;;10.70;96.90;;;;;;5029725;28;20021;-73
2022/12/21 05:15:38;;;;;;;95.55;41.75;;;10.70;97.00;;;;;;5044386;28;20407;-74
2022/12/21 05:18:04;;;;;;;104.22;45.95;;;10.70;97.10;;;;;;5035563;28;20055;-75
2022/12/21 05:20:30;;;;;;;167.52;46.80;;;10.70;97.20;;;;;;5044152;28;20071;-74
2022/12/21 05:22:55;;;;;;;90.05;38.42;;;10.70;97.20;;;;;;5048590;28;20029;-74
2022/12/21 05:25:21;;;;;;;61.78;30.63;;;10.70;97.20;;;;;;5045957;28;20032;-73
2022/12/21 05:27:47;;;;;;;119.72;36.35;;;10.60;97.00;;;;;;5041193;28;20033;-74
2022/12/21 05:30:12;;;;;;;81.03;37.22;;;10.60;97.10;;;;;;5032650;28;20083;-74
2022/12/21 05:32:38;;;;;;;86.00;34.85;;;10.60;97.10;;;;;;5044932;28;20025;-75
2022/12/21 05:35:04;;;;;;;357.92;51.83;;;10.60;97.10;;;;;;5031160;28;20037;-73
2022/12/21 05:37:29;;;;;;;179.48;43.70;;;10.60;97.10;;;;;;5039388;28;20025;-74
2022/12/21 05:39:55;;;;;;;121.82;40.03;;;10.50;97.20;;;;;;5041022;28;20037;-74
2022/12/21 05:42:21;;;;;;;246.30;45.63;;;10.50;97.20;;;;;;5036409;28;20025;-74
2022/12/21 05:44:49;;;;;;;176.43;43.28;;;10.60;97.20;;;;;;5035148;28;20044;-73
2022/12/21 05:47:15;;;;;;;121.53;41.85;;;10.50;97.20;;;;;;5039689;28;20033;-74
2022/12/21 05:49:41;;;;;;;106.75;40.90;;;10.50;97.30;;;;;;5037285;28;20039;-75
2022/12/21 05:52:06;;;;;;;207.27;44.70;;;10.50;97.30;;;;;;5041149;28;20021;-72
2022/12/21 05:54:32;;;;;;;233.32;49.45;;;10.50;97.40;;;;;;5035352;28;20156;-74
2022/12/21 05:56:58;;;;;;;203.05;47.28;;;10.50;97.40;;;;;;5037342;28;20087;-74
2022/12/21 05:59:23;;;;;;;294.75;51.65;;;10.40;97.40;;;;;;5040138;28;20049;-73
2022/12/21 06:01:49;;;;;;;274.98;46.35;;;10.40;97.40;;;;;;5036649;28;20027;-74
2022/12/21 06:04:15;;;;;;;519.85;63.08;;;10.40;97.40;;;;;;5038835;28;20731;-73
2022/12/21 06:06:40;;;;;;;127.43;42.42;;;10.40;97.50;;;;;;5043123;28;20048;-73
2022/12/21 06:09:09;;;;;;;317.27;58.85;;;10.40;97.50;;;;;;5039497;28;20396;-74
2022/12/21 06:11:35;;;;;;;298.20;55.05;;;10.40;97.50;;;;;;5043882;28;20017;-73
2022/12/21 06:14:00;;;;;;;245.38;46.45;;;10.40;97.50;;;;;;5041789;28;20043;-73
2022/12/21 06:16:27;;;;;;;195.20;54.05;;;10.40;97.50;;;;;;5042844;28;20518;-72
2022/12/21 06:18:53;;;;;;;340.85;54.20;;;10.50;97.80;;;;;;5039927;28;20053;-74
2022/12/21 06:21:20;;;;;;;104.97;44.67;;;10.50;97.40;;;;;;5043254;28;20075;-74
2022/12/21 06:23:47;;;;;;;348.67;58.47;;;10.40;97.50;;;;;;5041989;28;20014;-74
2022/12/21 06:26:15;;;;;;;173.48;51.88;;;10.40;97.60;;;;;;5040874;28;20036;-73
2022/12/21 06:28:41;;;;;;;119.07;51.78;;;10.50;97.60;;;;;;5038713;28;20634;-74
2022/12/21 06:31:10;;;;;;;133.20;52.28;;;10.50;97.60;;;;;;5029876;28;20129;-73
2022/12/21 06:33:36;;;;;;;238.00;65.18;;;10.50;97.60;;;;;;5036466;28;20048;-74
2022/12/21 06:36:05;;;;;;;116.95;51.70;;;10.50;97.60;;;;;;5040891;28;20129;-73
2022/12/21 06:38:31;;;;;;;118.22;50.80;;;10.50;97.50;;;;;;5040759;28;20463;-75
2022/12/21 06:41:03;;;;;;;103.05;48.85;;;10.50;97.50;;;;;;5042513;28;20021;-73
2022/12/21 06:43:30;;;;;;;110.25;51.78;;;10.50;97.60;;;;;;5040451;28;20041;-73
2022/12/21 06:45:58;;;;;;;127.55;55.80;;;10.50;97.50;;;;;;5043951;28;20056;-74
2022/12/21 06:48:25;;;;;;;126.40;56.67;;;10.50;97.50;;;;;;5043564;28;20032;-74
2022/12/21 06:50:55;;;;;;;98.40;49.03;;;10.50;97.50;;;;;;5042747;28;20019;-73
2022/12/21 06:53:23;;;;;;;112.43;55.88;;;10.50;97.50;;;;;;5039375;28;20013;-74
2022/12/21 06:55:56;;;;;;;106.55;51.85;;;10.50;97.50;;;;;;5042159;28;20025;-73
2022/12/21 06:58:22;;;;;;;102.20;48.90;;;10.50;97.50;;;;;;5036643;28;20025;-73
2022/12/21 07:00:49;;;;;;;103.63;49.08;;;10.50;97.50;;;;;;5050700;28;20036;-76
2022/12/21 07:03:14;;;;;;;111.05;51.67;;;10.40;97.60;;;;;;5046926;28;20494;-76
2022/12/21 07:05:40;;;;;;;102.65;50.05;;;10.50;97.50;;;;;;5041450;28;20021;-77
2022/12/21 07:08:06;;;;;;;97.20;47.88;;;10.50;97.50;;;;;;5040233;28;20102;-75
2022/12/21 07:10:32;;;;;;;87.13;44.20;;;10.40;97.50;;;;;;5049910;28;20017;-76
2022/12/21 07:12:59;;;;;;;110.88;52.35;;;10.40;97.50;;;;;;5047275;28;20025;-77
2022/12/21 07:15:25;;;;;;;94.53;49.83;;;10.40;97.50;;;;;;5050902;28;20132;-77
2022/12/21 07:17:51;;;;;;;118.85;54.58;;;10.30;97.50;;;;;;5049610;28;20104;-78
2022/12/21 07:20:17;;;;;;;103.03;47.08;;;10.40;97.50;;;;;;5040779;28;20195;-78
2022/12/21 07:22:43;;;;;;;90.95;45.60;;;10.40;97.50;;;;;;5045691;28;20035;-78
2022/12/21 07:25:08;;;;;;;90.20;43.33;;;10.40;97.50;;;;;;5040736;28;20022;-77
2022/12/21 07:27:36;;;;;;;100.55;49.50;;;10.40;97.50;;;;;;5028998;28;20020;-78
2022/12/21 07:30:02;;;;;;;92.68;48.00;;;10.40;97.70;;;;;;5045178;28;20120;-77
2022/12/21 07:32:28;;;;;;;81.72;43.08;;;10.40;97.30;;;;;;5043021;28;20691;-77
2022/12/21 07:34:55;;;;;;;83.15;42.17;;;10.50;97.20;;;;;;5041570;28;20060;-78
2022/12/21 07:37:21;;;;;;;95.43;46.97;;;10.50;97.10;;;;;;5025566;28;20526;-78
2022/12/21 07:39:47;;;;;;;97.70;48.83;;;10.50;97.10;;;;;;5044756;28;20025;-79
2022/12/21 07:42:13;;;;;;;119.80;51.78;;;10.50;97.10;;;;;;5041187;28;20035;-77
2022/12/21 07:44:39;;;;;;;97.63;48.17;;;10.50;97.10;;;;;;5034634;28;20033;-77
2022/12/21 07:47:05;;;;;;;77.70;40.65;;;10.50;97.00;;;;;;5023507;28;20052;-78
2022/12/21 07:49:30;;;;;;;90.05;44.88;;;10.40;96.90;;;;;;5035843;28;20056;-77
2022/12/21 07:51:56;;;;;;;102.78;49.38;;;10.50;97.00;;;;;;5039065;28;20013;-77
2022/12/21 07:54:23;;;;;;;85.47;46.40;;;10.50;97.00;;;;;;5045816;28;20651;-77
2022/12/21 07:56:49;;;;;;;91.45;45.53;;;10.40;96.90;;;;;;5022355;28;20036;-77
2022/12/21 07:59:15;;;;;;;108.43;50.38;;;10.40;96.80;;;;;;5040644;28;20491;-76
2022/12/21 08:01:41;;;;;;;79.35;42.67;;;10.40;96.80;;;;;;5037531;28;20027;-79
2022/12/21 08:04:07;;;;;;;76.43;40.40;;;10.30;96.80;;;;;;5048718;28;20025;-77
2022/12/21 08:06:33;;;;;;;72.85;38.88;;;10.40;96.90;;;;;;5041948;28;20017;-78
2022/12/21 08:08:59;;;;;;;64.50;34.83;;;10.40;96.90;;;;;;5044430;28;20028;-78
2022/12/21 08:11:28;;;;;;;66.07;36.97;;;10.40;96.90;;;;;;5037657;28;20025;-76
2022/12/21 08:13:54;;;;;;;69.22;36.95;;;10.30;96.90;;;;;;5041355;28;20025;-77
2022/12/21 08:16:20;;;;;;;59.67;35.15;;;10.30;96.90;;;;;;5017105;28;20107;-77
2022/12/21 08:18:46;;;;;;;66.00;36.08;;;10.30;96.90;;;;;;5024622;28;20037;-76
2022/12/21 08:21:13;;;;;;;72.10;38.05;;;10.30;97.00;;;;;;5026349;28;20025;-77
2022/12/21 08:23:39;;;;;;;62.15;34.40;;;10.30;96.90;;;;;;5031195;28;20021;-78
2022/12/21 08:26:07;;;;;;;69.28;38.35;;;10.40;96.90;;;;;;5005181;28;20388;-77
2022/12/21 08:28:33;;;;;;;62.90;35.42;;;10.30;96.90;;;;;;5022509;28;20495;-76
2022/12/21 08:31:06;;;;;;;59.30;32.33;;;10.40;96.80;;;;;;5027744;28;20025;-76
2022/12/21 08:33:32;;;;;;;64.80;36.65;;;10.40;96.70;;;;;;5024608;28;20033;-78
2022/12/21 08:35:58;;;;;;;66.80;36.25;;;10.40;96.70;;;;;;5028361;28;20034;-78
2022/12/21 08:38:24;;;;;;;67.13;36.50;;;10.30;96.70;;;;;;5031634;28;20547;-78
2022/12/21 08:40:50;;;;;;;60.28;36.97;;;10.40;96.70;;;;;;5030789;28;20395;-78
2022/12/21 08:43:17;;;;;;;63.00;34.70;;;10.40;96.60;;;;;;5026953;28;20076;-77
2022/12/21 08:45:43;;;;;;;56.80;31.58;;;10.40;96.50;;;;;;5038844;28;20041;-78
2022/12/21 08:48:11;;;;;;;54.95;31.33;;;10.40;96.40;;;;;;5018320;28;20022;-79
2022/12/21 08:50:36;;;;;;;52.88;31.20;;;10.40;96.40;;;;;;5020348;28;20114;-79
2022/12/21 08:53:02;;;;;;;50.22;29.92;;;10.40;96.30;;;;;;5028728;28;20495;-79
2022/12/21 08:55:30;;;;;;;48.88;29.52;;;10.40;96.30;;;;;;5017870;28;20029;-80
2022/12/21 08:57:55;;;;;;;50.08;29.27;;;10.40;96.20;;;;;;5020955;28;20071;-78
2022/12/21 09:00:21;;;;;;;44.92;24.70;;;10.40;96.30;;;;;;5027462;28;20037;-78
2022/12/21 09:02:47;;;;;;;49.20;28.30;;;10.40;96.30;;;;;;5025254;28;20032;-80
2022/12/21 09:05:12;;;;;;;43.65;27.02;;;10.40;96.30;;;;;;5019893;28;20060;-77
2022/12/21 09:07:38;;;;;;;40.58;25.20;;;10.40;96.20;;;;;;5025943;28;20506;-78
2022/12/21 09:10:04;;;;;;;42.95;25.10;;;10.40;96.20;;;;;;5004100;28;20071;-77
2022/12/21 09:12:30;;;;;;;46.03;23.65;;;10.50;96.20;;;;;;5026599;28;20079;-77
2022/12/21 09:14:55;;;;;;;37.60;23.25;;;10.50;96.20;;;;;;5018195;28;20041;-76
2022/12/21 09:17:21;;;;;;;34.70;22.30;;;10.50;96.20;;;;;;5046770;28;20031;-78
2022/12/21 09:19:47;;;;;;;33.65;21.60;;;10.60;96.20;;;;;;5049320;28;20080;-78
2022/12/21 09:22:13;;;;;;;36.10;20.98;;;10.60;96.30;;;;;;5037222;28;20032;-80
2022/12/21 09:24:38;;;;;;;31.92;18.85;;;10.70;96.00;;;;;;5049135;28;20435;-78
2022/12/21 09:27:04;;;;;;;32.15;18.17;;;10.70;95.80;;;;;;5045931;28;20026;-79
2022/12/21 09:29:31;;;;;;;27.23;17.55;;;10.70;95.50;;;;;;5036891;28;20052;-78
2022/12/21 09:31:56;;;;;;;31.95;18.33;;;10.70;95.70;;;;;;5044896;28;20017;-78
2022/12/21 09:34:22;;;;;;;30.10;18.33;;;10.70;95.30;;;;;;5049599;28;20025;-78
2022/12/21 09:36:48;;;;;;;31.92;17.90;;;10.70;95.30;;;;;;5042526;28;20041;-79
2022/12/21 09:39:13;;;;;;;27.20;16.42;;;10.70;95.30;;;;;;5035585;28;20104;-79
2022/12/21 09:42:31;;;;;;;26.25;17.13;;;10.70;95.50;;;;;;5047957;28;20714;-78
2022/12/21 09:45:02;;;;;;;29.90;18.00;;;10.70;95.20;;;;;;5002587;28;20153;-79
2022/12/21 09:47:53;;;;;;;27.08;16.55;;;10.70;95.10;;;;;;5049857;28;20040;-79
2022/12/21 09:50:33;;;;;;;26.60;16.48;;;10.70;95.10;;;;;;5035387;28;20049;-78
2022/12/21 09:53:11;;;;;;;26.23;13.23;;;10.60;94.90;;;;;;5029584;28;20413;-79
2022/12/21 09:55:44;;;;;;;33.40;17.77;;;10.60;95.00;;;;;;5040197;28;20036;-78
2022/12/21 09:58:18;;;;;;;29.35;17.38;;;10.60;95.20;;;;;;5047717;28;20024;-78
2022/12/21 10:00:49;;;;;;;30.02;17.67;;;10.60;95.30;;;;;;5037244;28;20033;-79
2022/12/21 10:03:56;;;;;;;33.22;18.33;;;10.60;95.30;;;;;;5039612;28;20022;-80
2022/12/21 10:06:34;;;;;;;36.67;19.80;;;10.60;95.40;;;;;;5028744;28;20123;-79
2022/12/21 10:09:18;;;;;;;34.53;19.58;;;10.60;95.30;;;;;;5041716;28;20021;-79
2022/12/21 10:11:59;;;;;;;27.92;15.27;;;10.60;95.30;;;;;;5042658;28;20017;-78
2022/12/21 10:14:52;;;;;;;32.00;19.05;;;10.60;95.40;;;;;;5020923;28;20033;-77
2022/12/21 10:17:20;;;;;;;27.90;14.05;;;10.60;95.40;;;;;;5034428;28;20041;-78
2022/12/21 10:20:10;;;;;;;32.60;16.20;;;10.60;95.40;;;;;;5037624;28;20029;-78
2022/12/21 10:22:45;;;;;;;29.92;15.65;;;10.60;95.40;;;;;;5027404;28;20009;-78
2022/12/21 10:25:20;;;;;;;30.40;17.00;;;10.70;95.40;;;;;;5018491;28;20021;-78
2022/12/21 10:28:06;;;;;;;26.30;14.57;;;10.70;95.30;;;;;;5035544;28;20081;-78
2022/12/21 10:30:33;;;;;;;27.45;17.13;;;10.70;95.20;;;;;;5043782;28;20060;-77
2022/12/21 10:33:01;;;;;;;40.08;19.00;;;10.70;95.10;;;;;;5048390;28;20033;-77
2022/12/21 10:35:38;;;;;;;31.05;17.35;;;10.70;95.10;;;;;;5040289;28;20108;-76
2022/12/21 10:38:18;;;;;;;36.38;18.27;;;10.60;95.10;;;;;;5047706;28;20033;-77
2022/12/21 10:40:54;;;;;;;32.60;18.75;;;10.60;95.10;;;;;;5037667;28;20028;-78
2022/12/21 10:43:20;;;;;;;39.67;19.83;;;10.60;95.20;;;;;;5041994;28;20824;-77
2022/12/21 10:45:46;;;;;;;33.65;18.33;;;10.60;95.20;;;;;;5040248;28;20056;-78
2022/12/21 10:48:15;;;;;;;41.28;21.88;;;10.60;95.20;;;;;;5037817;28;20017;-78
2022/12/21 10:50:45;;;;;;;29.10;16.73;;;10.50;95.30;;;;;;5046039;28;20033;-77
2022/12/21 10:53:28;;;;;;;36.40;18.10;;;10.50;95.50;;;;;;5043066;28;20531;-77
2022/12/21 10:55:59;;;;;;;36.08;17.98;;;10.50;95.60;;;;;;5042321;28;20029;-77
2022/12/21 10:58:28;;;;;;;34.53;19.75;;;10.50;95.60;;;;;;5043061;28;20017;-76
2022/12/21 11:01:04;;;;;;;41.13;21.80;;;10.40;95.60;;;;;;5047418;28;20021;-77
2022/12/21 11:03:38;;;;;;;40.38;19.80;;;10.40;95.60;;;;;;5043391;28;20017;-76
2022/12/21 11:06:31;;;;;;;22.98;11.27;;;10.40;95.80;;;;;;5038293;28;20438;-77
2022/12/21 11:08:57;;;;;;;33.92;17.83;;;10.40;95.50;;;;;;5041175;28;20119;-77
2022/12/21 11:11:35;;;;;;;32.58;16.98;;;10.50;95.20;;;;;;5039187;28;20052;-77
2022/12/21 11:14:15;;;;;;;44.17;22.50;;;10.50;95.30;;;;;;5005523;28;20026;-77
2022/12/21 11:16:42;;;;;;;;;;;10.50;95.40;;;;;;5037918;28;20053;-77
2022/12/21 11:19:12;;;;;;;39.75;23.73;;;10.50;95.40;;;;;;5036158;28;20004;-76
2022/12/21 11:21:57;;;;;;;44.35;25.40;;;10.60;95.40;;;;;;5041939;28;20040;-75
2022/12/21 11:24:37;;;;;;;38.70;21.48;;;10.50;95.30;;;;;;5040185;28;20132;-78
2022/12/21 11:27:11;;;;;;;50.77;28.30;;;10.60;95.40;;;;;;5046876;28;20055;-77
2022/12/21 11:29:59;;;;;;;48.17;31.63;;;10.60;95.50;;;;;;5038781;28;20079;-79
2022/12/21 11:32:28;;;;;;;39.17;25.73;;;10.60;95.60;;;;;;5037612;28;20017;-77
2022/12/21 11:34:55;;;;;;;45.28;27.40;;;10.60;95.60;;;;;;5049785;28;20033;-77
2022/12/21 11:37:42;;;;;;;45.72;28.75;;;10.80;96.00;;;;;;5023887;28;20025;-77
2022/12/21 11:40:11;;;;;;;49.22;29.10;;;10.90;95.70;;;;;;5039019;28;20033;-76
2022/12/21 11:42:58;;;;;;;40.10;24.83;;;11.10;95.30;;;;;;5040352;28;20017;-78
2022/12/21 11:45:34;;;;;;;39.83;26.30;;;11.20;95.10;;;;;;5030904;28;20037;-76
2022/12/21 11:48:11;;;;;;;45.88;29.05;;;11.20;94.50;;;;;;5038527;28;20027;-75
2022/12/21 11:51:13;;;;;;;46.80;30.98;;;11.20;94.50;;;;;;5039830;28;20104;-78
2022/12/21 11:53:51;;;;;;;42.13;24.98;;;11.20;94.30;;;;;;5020183;28;20036;-76
2022/12/21 11:56:44;;;;;;;40.28;25.05;;;11.20;94.40;;;;;;5040159;28;20107;-76
2022/12/21 11:59:19;;;;;;;41.10;26.45;;;11.20;94.50;;;;;;5037979;28;20096;-77
2022/12/21 12:02:05;;;;;;;46.00;28.75;;;11.20;94.70;;;;;;5022764;28;20025;-77
2022/12/21 12:04:43;;;;;;;34.88;21.55;;;11.20;94.40;;;;;;5041871;28;20026;-77
2022/12/21 12:07:34;;;;;;;42.30;25.38;;;11.20;94.50;;;;;;5046123;28;20071;-75
2022/12/21 12:10:18;;;;;;;31.30;17.52;;;11.20;94.50;;;;;;5043258;28;20036;-76
2022/12/21 12:13:06;;;;;;;36.60;19.90;;;11.20;94.40;;;;;;5040109;28;20026;-76
2022/12/21 12:16:12;;;;;;;30.90;18.63;;;11.10;94.20;;;;;;5044544;28;20372;-78
2022/12/21 12:19:15;;;;;;;29.33;15.57;;;11.10;94.30;;;;;;5041998;28;20026;-76
2022/12/21 12:21:49;;;;;;;31.27;16.25;;;11.00;94.40;;;;;;5018084;28;20041;-76
2022/12/21 12:24:34;;;;;;;25.25;15.38;;;11.00;94.40;;;;;;5034944;28;20029;-76
2022/12/21 12:27:25;;;;;;;26.38;15.50;;;11.00;94.50;;;;;;5049193;28;20029;-76
2022/12/21 12:30:00;;;;;;;35.15;19.63;;;10.90;94.50;;;;;;5045598;28;20100;-75
2022/12/21 12:32:32;;;;;;;27.02;17.92;;;10.80;94.50;;;;;;5050128;28;20047;-75
2022/12/21 12:35:19;;;;;;;29.35;17.92;;;10.80;94.50;;;;;;5038441;28;20063;-75
2022/12/21 12:37:51;;;;;;;34.05;20.63;;;10.80;94.50;;;;;;5047967;28;20033;-76
2022/12/21 12:40:35;;;;;;;28.52;19.48;;;10.80;94.50;;;;;;5040997;28;20025;-77
2022/12/21 12:43:13;;;;;;;35.70;19.75;;;10.80;94.50;;;;;;5039390;28;20060;-75
2022/12/21 12:46:01;;;;;;;34.53;21.52;;;10.80;94.40;;;;;;5044484;28;20115;-76
2022/12/21 12:48:43;;;;;;;32.70;21.10;;;10.70;94.40;;;;;;5045567;28;20068;-75
2022/12/21 12:51:29;;;;;;;34.60;21.55;;;10.80;94.50;;;;;;5047548;28;20028;-76
2022/12/21 12:54:32;;;;;;;34.78;22.30;;;10.70;94.50;;;;;;5034391;28;20029;-76
2022/12/21 12:57:19;;;;;;;35.25;20.35;;;10.70;94.40;;;;;;5042040;28;20044;-77